sensor_id;sensor_type;location;lat;lon;timestamp;pressure;altitude;pressure_sealevel;temperature;humidity
8573;BME280;4324;42.012;24.872;2023-11-19T00:00:50;98602.19;;;7.94;64.36
8573;BME280;4324;42.012;24.872;2023-11-19T00:03:17;98603.66;;;7.96;66.66
8573;BME280;4324;42.012;24.872;2023-11-19T00:05:44;98605.16;;;7.99;71.06
8573;BME280;4324;42.012;24.872;2023-11-19T00:08:11;98623.31;;;8.02;68.12
8573;BME280;4324;42.012;24.872;2023-11-19T00:10:38;98628.56;;;7.94;65.70
8573;BME280;4324;42.012;24.872;2023-11-19T00:13:05;98585.16;;;7.80;64.69
8573;BME280;4324;42.012;24.872;2023-11-19T00:15:34;98641.69;;;7.86;63.30
8573;BME280;4324;42.012;24.872;2023-11-19T00:18:00;98648.94;;;7.84;61.90
8573;BME280;4324;42.012;24.872;2023-11-19T00:20:30;98613.38;;;7.88;63.68
8573;BME280;4324;42.012;24.872;2023-11-19T00:22:57;98622.94;;;7.97;67.69
8573;BME280;4324;42.012;24.872;2023-11-19T00:25:24;98627.28;;;8.06;74.73
8573;BME280;4324;42.012;24.872;2023-11-19T00:27:51;98626.06;;;7.92;68.67
8573;BME280;4324;42.012;24.872;2023-11-19T00:30:19;98629.50;;;7.85;68.56
8573;BME280;4324;42.012;24.872;2023-11-19T00:32:47;98602.63;;;7.81;67.86
8573;BME280;4324;42.012;24.872;2023-11-19T00:35:13;98591.59;;;7.86;69.09
8573;BME280;4324;42.012;24.872;2023-11-19T00:37:40;98655.03;;;7.84;65.12
8573;BME280;4324;42.012;24.872;2023-11-19T00:40:09;98604.69;;;7.61;63.09
8573;BME280;4324;42.012;24.872;2023-11-19T00:42:36;98682.72;;;7.88;66.85
8573;BME280;4324;42.012;24.872;2023-11-19T00:45:04;98664.59;;;7.93;67.98
8573;BME280;4324;42.012;24.872;2023-11-19T00:47:33;98694.47;;;7.94;65.67
8573;BME280;4324;42.012;24.872;2023-11-19T00:50:02;98664.78;;;7.92;65.82
8573;BME280;4324;42.012;24.872;2023-11-19T00:52:29;98648.94;;;7.84;67.33
8573;BME280;4324;42.012;24.872;2023-11-19T00:54:56;98664.13;;;7.90;66.13
8573;BME280;4324;42.012;24.872;2023-11-19T00:57:23;98673.16;;;7.87;67.07
8573;BME280;4324;42.012;24.872;2023-11-19T00:59:52;98663.47;;;7.96;70.45
8573;BME280;4324;42.012;24.872;2023-11-19T01:02:19;98666.59;;;7.91;67.88
8573;BME280;4324;42.012;24.872;2023-11-19T01:04:46;98663.75;;;7.85;66.35
8573;BME280;4324;42.012;24.872;2023-11-19T01:07:14;98648.94;;;7.84;65.15
8573;BME280;4324;42.012;24.872;2023-11-19T01:09:42;98660.28;;;7.84;68.51
8573;BME280;4324;42.012;24.872;2023-11-19T01:12:09;98665.22;;;7.79;66.02
8573;BME280;4324;42.012;24.872;2023-11-19T01:14:36;98658.03;;;7.63;67.57
8573;BME280;4324;42.012;24.872;2023-11-19T01:17:04;98653.91;;;7.87;69.72
8573;BME280;4324;42.012;24.872;2023-11-19T01:19:31;98651.41;;;7.85;71.45
8573;BME280;4324;42.012;24.872;2023-11-19T01:21:58;98651.88;;;7.81;71.63
8573;BME280;4324;42.012;24.872;2023-11-19T01:24:26;98661.44;;;7.82;69.39
8573;BME280;4324;42.012;24.872;2023-11-19T01:26:56;98655.84;;;7.85;74.69
8573;BME280;4324;42.012;24.872;2023-11-19T01:29:25;98638.75;;;7.97;74.88
8573;BME280;4324;42.012;24.872;2023-11-19T01:31:52;98659.84;;;7.97;76.95
8573;BME280;4324;42.012;24.872;2023-11-19T01:34:19;98670.09;;;8.00;79.30
8573;BME280;4324;42.012;24.872;2023-11-19T01:36:47;98666.50;;;8.01;80.12
8573;BME280;4324;42.012;24.872;2023-11-19T01:39:14;98658.22;;;7.96;78.22
8573;BME280;4324;42.012;24.872;2023-11-19T01:41:44;98670.09;;;8.00;77.93
8573;BME280;4324;42.012;24.872;2023-11-19T01:44:11;98684.25;;;7.99;74.89
8573;BME280;4324;42.012;24.872;2023-11-19T01:46:40;98662.97;;;7.92;71.96
8573;BME280;4324;42.012;24.872;2023-11-19T01:49:07;98651.59;;;7.92;73.67
8573;BME280;4324;42.012;24.872;2023-11-19T01:51:35;98669.88;;;7.93;72.55
8573;BME280;4324;42.012;24.872;2023-11-19T01:54:02;98621.59;;;7.85;73.83
8573;BME280;4324;42.012;24.872;2023-11-19T01:56:30;98642.38;;;7.96;75.98
8573;BME280;4324;42.012;24.872;2023-11-19T01:59:00;98655.22;;;7.91;74.88
8573;BME280;4324;42.012;24.872;2023-11-19T02:01:27;98663.97;;;7.91;76.89
8573;BME280;4324;42.012;24.872;2023-11-19T02:03:55;98642.31;;;7.80;73.72
8573;BME280;4324;42.012;24.872;2023-11-19T02:06:24;98659.28;;;7.77;71.40
8573;BME280;4324;42.012;24.872;2023-11-19T02:08:52;98655.97;;;7.75;71.84
8573;BME280;4324;42.012;24.872;2023-11-19T02:11:19;98667.19;;;7.77;72.38
8573;BME280;4324;42.012;24.872;2023-11-19T02:13:47;98659.09;;;7.79;76.08
8573;BME280;4324;42.012;24.872;2023-11-19T02:16:15;98683.50;;;7.81;78.02
8573;BME280;4324;42.012;24.872;2023-11-19T02:18:42;98664.53;;;7.77;76.47
8573;BME280;4324;42.012;24.872;2023-11-19T02:21:09;98661.25;;;7.75;75.25
8573;BME280;4324;42.012;24.872;2023-11-19T02:23:36;98637.41;;;7.59;76.67
8573;BME280;4324;42.012;24.872;2023-11-19T02:26:12;98677.38;;;7.72;74.30
8573;BME280;4324;42.012;24.872;2023-11-19T02:28:42;98671.28;;;7.71;76.89
8573;BME280;4324;42.012;24.872;2023-11-19T02:31:09;98666.94;;;7.62;73.93
8573;BME280;4324;42.012;24.872;2023-11-19T02:33:37;98656.47;;;7.52;73.92
8573;BME280;4324;42.012;24.872;2023-11-19T02:36:05;98672.19;;;7.62;75.66
8573;BME280;4324;42.012;24.872;2023-11-19T02:38:32;98652.94;;;7.62;75.13
8573;BME280;4324;42.012;24.872;2023-11-19T02:41:02;98664.25;;;7.54;75.21
8573;BME280;4324;42.012;24.872;2023-11-19T02:43:30;98672.66;;;7.58;76.33
8573;BME280;4324;42.012;24.872;2023-11-19T02:46:01;98674.25;;;7.50;74.69
8573;BME280;4324;42.012;24.872;2023-11-19T02:48:29;98665.16;;;7.45;75.25
8573;BME280;4324;42.012;24.872;2023-11-19T02:50:56;98684.84;;;7.59;77.61
8573;BME280;4324;42.012;24.872;2023-11-19T02:53:24;98661.97;;;7.59;79.56
8573;BME280;4324;42.012;24.872;2023-11-19T02:55:53;98679.75;;;7.57;78.31
8573;BME280;4324;42.012;24.872;2023-11-19T02:58:26;98675.78;;;7.53;75.75
8573;BME280;4324;42.012;24.872;2023-11-19T03:00:54;98657.63;;;7.50;75.46
8573;BME280;4324;42.012;24.872;2023-11-19T03:03:25;98689.97;;;7.60;74.65
8573;BME280;4324;42.012;24.872;2023-11-19T03:05:56;98676.84;;;7.68;77.87
8573;BME280;4324;42.012;24.872;2023-11-19T03:08:23;98657.09;;;7.72;79.75
8573;BME280;4324;42.012;24.872;2023-11-19T03:10:50;98662.00;;;7.67;79.45
8573;BME280;4324;42.012;24.872;2023-11-19T03:13:17;98673.22;;;7.69;79.65
8573;BME280;4324;42.012;24.872;2023-11-19T03:15:44;98677.53;;;7.79;82.13
8573;BME280;4324;42.012;24.872;2023-11-19T03:18:11;98667.66;;;7.72;78.60
8573;BME280;4324;42.012;24.872;2023-11-19T03:20:40;98663.88;;;7.75;79.25
8573;BME280;4324;42.012;24.872;2023-11-19T03:23:07;98671.78;;;7.75;79.56
8573;BME280;4324;42.012;24.872;2023-11-19T03:25:34;98686.13;;;7.81;78.91
8573;BME280;4324;42.012;24.872;2023-11-19T03:28:03;98686.44;;;7.78;76.36
8573;BME280;4324;42.012;24.872;2023-11-19T03:30:30;98695.34;;;7.76;78.11
8573;BME280;4324;42.012;24.872;2023-11-19T03:32:58;98697.63;;;7.71;73.52
8573;BME280;4324;42.012;24.872;2023-11-19T03:35:26;98694.91;;;7.63;68.78
8573;BME280;4324;42.012;24.872;2023-11-19T03:37:55;98656.72;;;7.67;70.88
8573;BME280;4324;42.012;24.872;2023-11-19T03:40:22;98667.09;;;7.61;68.59
8573;BME280;4324;42.012;24.872;2023-11-19T03:42:50;98664.25;;;7.54;66.40
8573;BME280;4324;42.012;24.872;2023-11-19T03:45:17;98613.06;;;7.31;64.75
8573;BME280;4324;42.012;24.872;2023-11-19T03:47:44;98668.78;;;7.44;64.08
8573;BME280;4324;42.012;24.872;2023-11-19T03:50:11;98632.72;;;7.44;64.25
8573;BME280;4324;42.012;24.872;2023-11-19T03:52:38;98647.34;;;7.39;64.32
8573;BME280;4324;42.012;24.872;2023-11-19T03:55:07;98661.34;;;7.39;64.45
8573;BME280;4324;42.012;24.872;2023-11-19T03:57:35;98657.88;;;7.39;64.61
8573;BME280;4324;42.012;24.872;2023-11-19T04:00:02;98653.28;;;7.41;65.79
8573;BME280;4324;42.012;24.872;2023-11-19T04:02:34;98685.41;;;7.44;67.74
8573;BME280;4324;42.012;24.872;2023-11-19T04:05:01;98672.09;;;7.46;70.12
8573;BME280;4324;42.012;24.872;2023-11-19T04:07:28;98638.72;;;7.28;70.98
8573;BME280;4324;42.012;24.872;2023-11-19T04:09:55;98658.59;;;7.49;75.23
8573;BME280;4324;42.012;24.872;2023-11-19T04:12:24;98682.16;;;7.50;73.85
8573;BME280;4324;42.012;24.872;2023-11-19T04:14:51;98691.88;;;7.50;75.61
8573;BME280;4324;42.012;24.872;2023-11-19T04:17:18;98683.94;;;7.42;75.53
8573;BME280;4324;42.012;24.872;2023-11-19T04:19:44;98680.78;;;7.38;76.37
8573;BME280;4324;42.012;24.872;2023-11-19T04:22:11;98681.28;;;7.42;77.14
8573;BME280;4324;42.012;24.872;2023-11-19T04:24:38;98696.09;;;7.43;79.09
8573;BME280;4324;42.012;24.872;2023-11-19T04:27:06;98690.84;;;7.43;79.03
8573;BME280;4324;42.012;24.872;2023-11-19T04:29:34;98705.66;;;7.44;76.09
8573;BME280;4324;42.012;24.872;2023-11-19T04:32:02;98689.84;;;7.44;78.00
8573;BME280;4324;42.012;24.872;2023-11-19T04:34:31;98701.25;;;7.52;76.71
8573;BME280;4324;42.012;24.872;2023-11-19T04:36:58;98710.16;;;7.51;76.82
8573;BME280;4324;42.012;24.872;2023-11-19T04:39:28;98708.66;;;7.49;72.53
8573;BME280;4324;42.012;24.872;2023-11-19T04:41:54;98700.38;;;7.44;68.96
8573;BME280;4324;42.012;24.872;2023-11-19T04:44:21;98703.38;;;7.49;68.29
8573;BME280;4324;42.012;24.872;2023-11-19T04:46:50;98703.31;;;7.41;67.02
8573;BME280;4324;42.012;24.872;2023-11-19T04:49:17;98695.47;;;7.49;66.74
8573;BME280;4324;42.012;24.872;2023-11-19T04:51:45;98683.97;;;7.50;66.80
8573;BME280;4324;42.012;24.872;2023-11-19T04:54:13;98714.97;;;7.56;67.74
8573;BME280;4324;42.012;24.872;2023-11-19T04:56:40;98760.09;;;7.53;69.35
8573;BME280;4324;42.012;24.872;2023-11-19T04:59:11;98732.75;;;7.54;70.68
8573;BME280;4324;42.012;24.872;2023-11-19T05:01:46;98747.56;;;7.55;74.92
8573;BME280;4324;42.012;24.872;2023-11-19T05:04:20;98726.78;;;7.52;72.06
8573;BME280;4324;42.012;24.872;2023-11-19T05:06:47;98734.34;;;7.47;72.23
8573;BME280;4324;42.012;24.872;2023-11-19T05:09:14;98748.16;;;7.49;75.95
8573;BME280;4324;42.012;24.872;2023-11-19T05:11:41;98737.88;;;7.38;73.37
8573;BME280;4324;42.012;24.872;2023-11-19T05:14:08;98764.31;;;7.46;75.96
8573;BME280;4324;42.012;24.872;2023-11-19T05:16:35;98757.00;;;7.40;75.88
8573;BME280;4324;42.012;24.872;2023-11-19T05:19:02;98775.06;;;7.35;76.71
8573;BME280;4324;42.012;24.872;2023-11-19T05:21:31;98768.97;;;7.34;76.78
8573;BME280;4324;42.012;24.872;2023-11-19T05:23:58;98766.13;;;7.27;76.38
8573;BME280;4324;42.012;24.872;2023-11-19T05:26:26;98775.66;;;7.28;77.07
8573;BME280;4324;42.012;24.872;2023-11-19T05:28:53;98782.56;;;7.30;77.71
8573;BME280;4324;42.012;24.872;2023-11-19T05:31:20;98766.41;;;7.24;79.33
8573;BME280;4324;42.012;24.872;2023-11-19T05:33:47;98794.63;;;7.32;79.69
8573;BME280;4324;42.012;24.872;2023-11-19T05:36:14;98785.22;;;7.30;76.34
8573;BME280;4324;42.012;24.872;2023-11-19T05:38:42;98792.81;;;7.33;79.61
8573;BME280;4324;42.012;24.872;2023-11-19T05:41:10;98783.94;;;7.34;79.69
8573;BME280;4324;42.012;24.872;2023-11-19T05:43:37;98787.41;;;7.34;78.25
8573;BME280;4324;42.012;24.872;2023-11-19T05:46:08;98790.47;;;7.30;75.55
8573;BME280;4324;42.012;24.872;2023-11-19T05:48:35;98796.44;;;7.32;76.61
8573;BME280;4324;42.012;24.872;2023-11-19T05:51:02;98792.22;;;7.39;80.47
8573;BME280;4324;42.012;24.872;2023-11-19T05:53:31;98807.22;;;7.38;80.76
8573;BME280;4324;42.012;24.872;2023-11-19T05:56:00;98810.25;;;7.34;79.86
8573;BME280;4324;42.012;24.872;2023-11-19T05:58:29;98794.09;;;7.28;78.47
8573;BME280;4324;42.012;24.872;2023-11-19T06:00:58;98801.69;;;7.32;79.18
8573;BME280;4324;42.012;24.872;2023-11-19T06:03:26;98807.19;;;7.20;75.85
8573;BME280;4324;42.012;24.872;2023-11-19T06:05:53;98804.91;;;7.25;78.25
8573;BME280;4324;42.012;24.872;2023-11-19T06:08:21;98803.94;;;7.26;74.57
8573;BME280;4324;42.012;24.872;2023-11-19T06:10:48;98808.38;;;7.26;72.28
8573;BME280;4324;42.012;24.872;2023-11-19T06:13:17;98799.75;;;7.16;73.62
8573;BME280;4324;42.012;24.872;2023-11-19T06:15:45;98793.34;;;7.18;73.91
8573;BME280;4324;42.012;24.872;2023-11-19T06:18:12;98813.81;;;7.24;71.74
8573;BME280;4324;42.012;24.872;2023-11-19T06:20:40;98824.34;;;7.24;73.92
8573;BME280;4324;42.012;24.872;2023-11-19T06:23:08;98811.25;;;7.33;75.28
8573;BME280;4324;42.012;24.872;2023-11-19T06:25:35;98805.91;;;7.24;76.65
8573;BME280;4324;42.012;24.872;2023-11-19T06:28:02;98856.78;;;7.43;76.57
8573;BME280;4324;42.012;24.872;2023-11-19T06:30:30;98840.16;;;7.42;74.31
8573;BME280;4324;42.012;24.872;2023-11-19T06:32:58;98848.16;;;7.50;73.49
8573;BME280;4324;42.012;24.872;2023-11-19T06:35:25;98831.56;;;7.40;72.57
8573;BME280;4324;42.012;24.872;2023-11-19T06:37:52;98861.31;;;7.68;75.62
8573;BME280;4324;42.012;24.872;2023-11-19T06:40:18;98862.97;;;7.69;74.94
8573;BME280;4324;42.012;24.872;2023-11-19T06:42:46;98865.75;;;7.86;80.24
8573;BME280;4324;42.012;24.872;2023-11-19T06:45:13;98853.84;;;7.82;74.75
8573;BME280;4324;42.012;24.872;2023-11-19T06:47:42;98855.38;;;7.84;74.47
8573;BME280;4324;42.012;24.872;2023-11-19T06:50:10;98881.03;;;7.82;75.70
8573;BME280;4324;42.012;24.872;2023-11-19T06:52:43;98878.63;;;7.89;75.49
8573;BME280;4324;42.012;24.872;2023-11-19T06:55:10;98849.84;;;7.95;74.15
8573;BME280;4324;42.012;24.872;2023-11-19T06:57:37;98847.50;;;7.92;73.57
8573;BME280;4324;42.012;24.872;2023-11-19T07:00:05;98841.13;;;7.95;73.25
8573;BME280;4324;42.012;24.872;2023-11-19T07:02:33;98844.09;;;8.00;74.87
8573;BME280;4324;42.012;24.872;2023-11-19T07:05:02;98858.19;;;8.09;77.52
8573;BME280;4324;42.012;24.872;2023-11-19T07:07:30;98861.19;;;8.14;79.28
8573;BME280;4324;42.012;24.872;2023-11-19T07:09:57;98874.44;;;8.22;79.65
8573;BME280;4324;42.012;24.872;2023-11-19T07:12:24;98886.25;;;8.36;80.37
8573;BME280;4324;42.012;24.872;2023-11-19T07:14:52;98878.47;;;8.34;80.75
8573;BME280;4324;42.012;24.872;2023-11-19T07:17:20;98854.53;;;8.28;81.03
8573;BME280;4324;42.012;24.872;2023-11-19T07:19:50;98871.78;;;8.40;74.06
8573;BME280;4324;42.012;24.872;2023-11-19T07:22:18;98869.31;;;8.38;76.22
8573;BME280;4324;42.012;24.872;2023-11-19T07:24:45;98884.72;;;8.51;75.24
8573;BME280;4324;42.012;24.872;2023-11-19T07:27:12;98860.63;;;8.46;73.46
8573;BME280;4324;42.012;24.872;2023-11-19T07:29:39;98882.38;;;8.48;76.05
8573;BME280;4324;42.012;24.872;2023-11-19T07:32:07;98911.13;;;8.51;76.69
8573;BME280;4324;42.012;24.872;2023-11-19T07:34:34;98887.72;;;8.56;74.30
8573;BME280;4324;42.012;24.872;2023-11-19T07:37:01;98899.00;;;8.66;77.02
8573;BME280;4324;42.012;24.872;2023-11-19T07:39:30;98888.44;;;8.66;77.07
8573;BME280;4324;42.012;24.872;2023-11-19T07:41:57;98891.97;;;8.75;77.67
8573;BME280;4324;42.012;24.872;2023-11-19T07:44:24;98890.16;;;8.76;75.06
8573;BME280;4324;42.012;24.872;2023-11-19T07:46:51;98895.56;;;8.74;71.23
8573;BME280;4324;42.012;24.872;2023-11-19T07:49:18;98913.72;;;8.69;68.65
8573;BME280;4324;42.012;24.872;2023-11-19T07:51:45;98915.03;;;8.73;68.97
8573;BME280;4324;42.012;24.872;2023-11-19T07:54:12;98928.16;;;8.83;72.33
8573;BME280;4324;42.012;24.872;2023-11-19T07:56:40;98947.66;;;8.90;75.26
8573;BME280;4324;42.012;24.872;2023-11-19T07:59:07;98925.84;;;8.88;69.93
8573;BME280;4324;42.012;24.872;2023-11-19T08:01:34;98938.06;;;8.89;70.93
8573;BME280;4324;42.012;24.872;2023-11-19T08:04:01;98927.28;;;8.82;67.43
8573;BME280;4324;42.012;24.872;2023-11-19T08:06:28;98920.88;;;8.85;67.68
8573;BME280;4324;42.012;24.872;2023-11-19T08:08:56;98936.44;;;8.96;72.17
8573;BME280;4324;42.012;24.872;2023-11-19T08:11:23;98936.81;;;9.01;72.15
8573;BME280;4324;42.012;24.872;2023-11-19T08:13:51;98935.31;;;8.99;71.79
8573;BME280;4324;42.012;24.872;2023-11-19T08:16:18;98956.66;;;9.05;73.34
8573;BME280;4324;42.012;24.872;2023-11-19T08:18:45;98942.16;;;9.09;73.75
8573;BME280;4324;42.012;24.872;2023-11-19T08:21:12;98943.09;;;9.08;75.53
8573;BME280;4324;42.012;24.872;2023-11-19T08:23:40;98949.59;;;9.14;74.81
8573;BME280;4324;42.012;24.872;2023-11-19T08:26:07;98947.97;;;9.21;76.00
8573;BME280;4324;42.012;24.872;2023-11-19T08:28:34;98940.03;;;9.21;76.01
8573;BME280;4324;42.012;24.872;2023-11-19T08:31:02;98938.56;;;9.27;76.56
8573;BME280;4324;42.012;24.872;2023-11-19T08:33:31;98921.06;;;9.26;70.47
8573;BME280;4324;42.012;24.872;2023-11-19T08:35:58;98934.59;;;9.23;68.82
8573;BME280;4324;42.012;24.872;2023-11-19T08:38:26;98924.81;;;9.15;69.30
8573;BME280;4324;42.012;24.872;2023-11-19T08:40:53;98918.34;;;9.01;64.30
8573;BME280;4324;42.012;24.872;2023-11-19T08:43:25;98922.78;;;9.01;65.82
8573;BME280;4324;42.012;24.872;2023-11-19T08:46:00;98955.88;;;9.13;68.30
8573;BME280;4324;42.012;24.872;2023-11-19T08:48:41;98943.16;;;9.16;70.53
8573;BME280;4324;42.012;24.872;2023-11-19T08:51:08;98933.56;;;9.15;65.09
8573;BME280;4324;42.012;24.872;2023-11-19T08:53:35;98962.31;;;9.18;62.66
8573;BME280;4324;42.012;24.872;2023-11-19T08:56:07;98937.75;;;9.26;64.72
8573;BME280;4324;42.012;24.872;2023-11-19T08:58:34;98959.88;;;9.25;63.42
8573;BME280;4324;42.012;24.872;2023-11-19T09:01:01;98965.66;;;9.29;65.71
8573;BME280;4324;42.012;24.872;2023-11-19T09:04:05;98970.63;;;9.32;63.08
8573;BME280;4324;42.012;24.872;2023-11-19T09:06:46;98989.75;;;9.26;61.85
8573;BME280;4324;42.012;24.872;2023-11-19T09:09:13;98993.09;;;9.28;62.09
8573;BME280;4324;42.012;24.872;2023-11-19T09:11:49;98973.59;;;9.29;63.25
8573;BME280;4324;42.012;24.872;2023-11-19T09:14:31;98932.59;;;9.16;61.40
8573;BME280;4324;42.012;24.872;2023-11-19T09:16:58;98960.22;;;9.30;60.37
8573;BME280;4324;42.012;24.872;2023-11-19T09:19:27;98956.75;;;9.30;58.25
8573;BME280;4324;42.012;24.872;2023-11-19T09:21:54;98962.44;;;9.43;60.04
8573;BME280;4324;42.012;24.872;2023-11-19T09:24:21;98952.69;;;9.52;61.39
8573;BME280;4324;42.012;24.872;2023-11-19T09:26:48;98962.78;;;9.56;61.42
8573;BME280;4324;42.012;24.872;2023-11-19T09:29:15;98903.56;;;9.25;67.97
8573;BME280;4324;42.012;24.872;2023-11-19T09:31:42;98966.13;;;9.66;64.13
8573;BME280;4324;42.012;24.872;2023-11-19T09:34:09;98978.84;;;9.71;64.57
8573;BME280;4324;42.012;24.872;2023-11-19T09:36:37;98957.91;;;9.78;68.22
8573;BME280;4324;42.012;24.872;2023-11-19T09:39:09;98942.00;;;9.61;62.14
8573;BME280;4324;42.012;24.872;2023-11-19T09:41:36;98947.13;;;9.63;60.79
8573;BME280;4324;42.012;24.872;2023-11-19T09:44:03;98930.75;;;9.67;60.78
8573;BME280;4324;42.012;24.872;2023-11-19T09:46:31;98926.97;;;9.62;61.18
8573;BME280;4324;42.012;24.872;2023-11-19T09:48:59;98905.19;;;9.68;59.42
8573;BME280;4324;42.012;24.872;2023-11-19T09:51:26;98926.16;;;9.78;58.13
8573;BME280;4324;42.012;24.872;2023-11-19T09:53:54;98910.28;;;9.78;58.88
8573;BME280;4324;42.012;24.872;2023-11-19T09:56:22;98933.13;;;9.87;64.12
8573;BME280;4324;42.012;24.872;2023-11-19T09:58:49;98939.56;;;9.84;61.68
8573;BME280;4324;42.012;24.872;2023-11-19T10:01:17;98954.94;;;9.89;60.94
8573;BME280;4324;42.012;24.872;2023-11-19T10:03:46;98971.81;;;9.88;61.23
8573;BME280;4324;42.012;24.872;2023-11-19T10:06:15;98958.59;;;9.88;60.25
8573;BME280;4324;42.012;24.872;2023-11-19T10:08:42;98935.09;;;9.77;59.19
8573;BME280;4324;42.012;24.872;2023-11-19T10:11:11;98947.84;;;9.89;65.95
8573;BME280;4324;42.012;24.872;2023-11-19T10:13:39;98921.69;;;9.78;61.86
8573;BME280;4324;42.012;24.872;2023-11-19T10:16:08;98929.16;;;9.83;60.26
8573;BME280;4324;42.012;24.872;2023-11-19T10:18:37;98916.91;;;9.82;59.50
8573;BME280;4324;42.012;24.872;2023-11-19T10:21:05;98915.91;;;9.75;56.20
8573;BME280;4324;42.012;24.872;2023-11-19T10:23:48;98940.69;;;9.74;55.40
8573;BME280;4324;42.012;24.872;2023-11-19T10:26:17;98911.63;;;9.74;54.59
8573;BME280;4324;42.012;24.872;2023-11-19T10:28:46;98900.41;;;9.72;55.61
8573;BME280;4324;42.012;24.872;2023-11-19T10:31:13;98914.59;;;9.70;54.86
8573;BME280;4324;42.012;24.872;2023-11-19T10:33:40;98888.47;;;9.67;56.87
8573;BME280;4324;42.012;24.872;2023-11-19T10:36:08;98898.06;;;9.68;54.34
8573;BME280;4324;42.012;24.872;2023-11-19T10:38:35;98902.03;;;9.73;54.16
8573;BME280;4324;42.012;24.872;2023-11-19T10:41:02;98893.59;;;9.61;53.31
8573;BME280;4324;42.012;24.872;2023-11-19T10:43:31;98903.88;;;9.80;52.83
8573;BME280;4324;42.012;24.872;2023-11-19T10:46:11;98886.19;;;9.89;52.58
8573;BME280;4324;42.012;24.872;2023-11-19T10:48:38;98887.66;;;9.75;51.72
8573;BME280;4324;42.012;24.872;2023-11-19T10:51:07;98905.38;;;9.91;52.46
8573;BME280;4324;42.012;24.872;2023-11-19T10:53:36;98888.81;;;9.97;54.02
8573;BME280;4324;42.012;24.872;2023-11-19T10:56:06;98882.22;;;10.09;53.32
8573;BME280;4324;42.012;24.872;2023-11-19T10:58:44;98867.00;;;10.03;53.03
8573;BME280;4324;42.012;24.872;2023-11-19T11:01:15;98873.63;;;10.24;52.59
8573;BME280;4324;42.012;24.872;2023-11-19T11:03:44;98886.88;;;10.32;52.42
8573;BME280;4324;42.012;24.872;2023-11-19T11:06:13;98882.25;;;10.42;55.38
8573;BME280;4324;42.012;24.872;2023-11-19T11:08:40;98885.53;;;10.36;53.33
8573;BME280;4324;42.012;24.872;2023-11-19T11:11:12;98871.31;;;10.29;52.10
8573;BME280;4324;42.012;24.872;2023-11-19T11:13:43;98890.34;;;10.32;51.80
8573;BME280;4324;42.012;24.872;2023-11-19T11:16:11;98891.16;;;10.25;51.11
8573;BME280;4324;42.012;24.872;2023-11-19T11:18:39;98871.31;;;10.12;50.78
8573;BME280;4324;42.012;24.872;2023-11-19T11:21:09;98881.91;;;10.21;50.51
8573;BME280;4324;42.012;24.872;2023-11-19T11:24:00;98869.50;;;10.21;50.72
8573;BME280;4324;42.012;24.872;2023-11-19T11:26:53;98866.72;;;10.31;51.35
8573;BME280;4324;42.012;24.872;2023-11-19T11:29:34;98874.63;;;10.39;50.60
8573;BME280;4324;42.012;24.872;2023-11-19T11:32:14;98832.94;;;10.25;50.57
8573;BME280;4324;42.012;24.872;2023-11-19T11:35:08;98861.19;;;10.49;51.36
8573;BME280;4324;42.012;24.872;2023-11-19T11:37:44;98854.59;;;10.45;50.33
8573;BME280;4324;42.012;24.872;2023-11-19T11:40:14;98853.75;;;10.44;50.27
8573;BME280;4324;42.012;24.872;2023-11-19T11:42:41;98843.50;;;10.41;50.15
8573;BME280;4324;42.012;24.872;2023-11-19T11:45:12;98819.03;;;10.39;50.02
8573;BME280;4324;42.012;24.872;2023-11-19T11:48:07;98848.94;;;10.56;49.94
8573;BME280;4324;42.012;24.872;2023-11-19T11:50:36;98835.53;;;10.49;49.58
8573;BME280;4324;42.012;24.872;2023-11-19T11:53:16;98828.75;;;10.55;50.29
8573;BME280;4324;42.012;24.872;2023-11-19T11:55:57;98837.00;;;10.60;50.49
8573;BME280;4324;42.012;24.872;2023-11-19T11:58:32;98836.16;;;10.68;49.78
8573;BME280;4324;42.012;24.872;2023-11-19T12:01:03;98818.97;;;10.63;49.56
8573;BME280;4324;42.012;24.872;2023-11-19T12:03:32;98801.13;;;10.57;49.65
8573;BME280;4324;42.012;24.872;2023-11-19T12:05:59;98811.50;;;10.67;49.09
8573;BME280;4324;42.012;24.872;2023-11-19T12:08:28;98820.59;;;10.73;49.19
8573;BME280;4324;42.012;24.872;2023-11-19T12:10:57;98821.56;;;10.80;48.80
8573;BME280;4324;42.012;24.872;2023-11-19T12:13:42;98780.69;;;10.74;48.57
8573;BME280;4324;42.012;24.872;2023-11-19T12:16:12;98791.41;;;10.81;48.26
8573;BME280;4324;42.012;24.872;2023-11-19T12:18:40;98804.97;;;10.86;48.97
8573;BME280;4324;42.012;24.872;2023-11-19T12:21:08;98801.34;;;10.87;48.48
8573;BME280;4324;42.012;24.872;2023-11-19T12:23:45;98812.91;;;10.94;48.71
8573;BME280;4324;42.012;24.872;2023-11-19T12:26:36;98812.91;;;10.94;47.97
8573;BME280;4324;42.012;24.872;2023-11-19T12:29:03;98791.41;;;10.81;47.81
8573;BME280;4324;42.012;24.872;2023-11-19T12:31:33;98803.31;;;10.85;47.81
8573;BME280;4324;42.012;24.872;2023-11-19T12:34:09;98797.06;;;10.78;48.02
8573;BME280;4324;42.012;24.872;2023-11-19T12:36:40;98798.56;;;10.80;48.33
8573;BME280;4324;42.012;24.872;2023-11-19T12:39:11;98793.41;;;10.79;48.55
8573;BME280;4324;42.012;24.872;2023-11-19T12:41:51;98773.69;;;10.81;48.97
8573;BME280;4324;42.012;24.872;2023-11-19T12:44:18;98775.53;;;10.81;49.02
8573;BME280;4324;42.012;24.872;2023-11-19T12:46:53;98774.84;;;10.87;48.74
8573;BME280;4324;42.012;24.872;2023-11-19T12:49:25;98759.47;;;10.82;49.00
8573;BME280;4324;42.012;24.872;2023-11-19T12:51:54;98777.44;;;10.95;49.36
8573;BME280;4324;42.012;24.872;2023-11-19T12:54:46;98753.19;;;10.83;49.17
8573;BME280;4324;42.012;24.872;2023-11-19T12:57:13;98743.75;;;10.81;49.00
8573;BME280;4324;42.012;24.872;2023-11-19T12:59:56;98767.88;;;10.94;49.05
8573;BME280;4324;42.012;24.872;2023-11-19T13:02:44;98757.13;;;10.87;49.19
8573;BME280;4324;42.012;24.872;2023-11-19T13:05:26;98764.25;;;10.87;48.99
8573;BME280;4324;42.012;24.872;2023-11-19T13:08:01;98771.81;;;10.90;49.50
8573;BME280;4324;42.012;24.872;2023-11-19T13:10:29;98762.78;;;10.84;49.80
8573;BME280;4324;42.012;24.872;2023-11-19T13:13:03;98758.69;;;10.74;49.85
8573;BME280;4324;42.012;24.872;2023-11-19T13:15:31;98767.94;;;10.78;49.84
8573;BME280;4324;42.012;24.872;2023-11-19T13:18:00;98748.44;;;10.71;50.01
8573;BME280;4324;42.012;24.872;2023-11-19T13:20:27;98736.69;;;10.73;49.81
8573;BME280;4324;42.012;24.872;2023-11-19T13:22:56;98725.25;;;10.73;49.79
8573;BME280;4324;42.012;24.872;2023-11-19T13:25:23;98711.75;;;10.59;50.13
8573;BME280;4324;42.012;24.872;2023-11-19T13:27:51;98726.28;;;10.63;49.98
8573;BME280;4324;42.012;24.872;2023-11-19T13:30:18;98707.16;;;10.53;50.14